Time;durP1;ratioP1;P1;durP2;ratioP2;P2;SDS_P1;SDS_P2;PMS_P1;PMS_P2;Temp;Humidity;BMP_temperature;BMP_pressure;BME280_temperature;BME280_humidity;BME280_pressure;Samples;Min_cycle;Max_cycle;Signal;HPM_P1;HPM_P2
2022/08/09 00:01:23;;;;;;;26.10;13.40;;;;;;;23.05;70.17;99560.76;25090;1315;3053620;-59
2022/08/09 00:03:53;;;;;;;32.20;15.90;;;;;;;23.46;68.98;99559.27;25065;1313;3027089;-59
2022/08/09 00:06:22;;;;;;;36.90;16.20;;;;;;;23.62;68.34;99563.73;25049;1316;3052470;-60
2022/08/09 00:08:51;;;;;;;29.70;15.10;;;;;;;23.47;68.71;99564.29;25105;1314;3039015;-58
2022/08/09 00:11:20;;;;;;;27.90;15.50;;;;;;;23.39;69.05;99563.28;25042;1313;3051350;-59
2022/08/09 00:13:49;;;;;;;35.20;19.70;;;;;;;23.23;69.83;99562.34;25083;1313;3026852;-60
2022/08/09 00:16:18;;;;;;;37.80;19.40;;;;;;;23.03;70.51;99566.52;25050;1315;3027380;-59
2022/08/09 00:18:48;;;;;;;31.60;15.00;;;;;;;22.84;71.97;99568.30;25074;1315;3052691;-60
2022/08/09 00:21:17;;;;;;;31.50;17.30;;;;;;;23.23;70.75;99563.36;25118;1313;3027166;-60
2022/08/09 00:23:46;;;;;;;34.90;17.40;;;;;;;23.41;69.87;99566.95;25071;1315;3026639;-58
2022/08/09 00:26:15;;;;;;;35.50;16.60;;;;;;;23.21;70.74;99563.46;25082;1313;3051471;-58
2022/08/09 00:28:44;;;;;;;32.50;17.50;;;;;;;23.03;71.24;99565.61;25059;1313;3026718;-60
2022/08/09 00:31:13;;;;;;;38.80;16.20;;;;;;;22.79;72.24;99571.48;25093;1318;3057992;-58
2022/08/09 00:33:42;;;;;;;29.30;15.60;;;;;;;22.59;73.06;99574.96;25031;1313;3026569;-57
2022/08/09 00:36:11;;;;;;;22.40;12.80;;;;;;;22.43;74.05;99572.19;25090;1315;3055404;-60
2022/08/09 00:38:40;;;;;;;25.50;15.00;;;;;;;22.76;72.79;99571.15;25035;1315;3026817;-59
2022/08/09 00:41:10;;;;;;;26.40;16.10;;;;;;;22.88;72.19;99567.29;25090;1317;3054508;-59
2022/08/09 00:43:39;;;;;;;33.70;17.20;;;;;;;22.73;72.49;99572.14;25134;1315;3026805;-60
2022/08/09 00:46:08;;;;;;;30.40;17.30;;;;;;;22.56;73.33;99569.34;25059;1315;3028405;-59
2022/08/09 00:48:37;;;;;;;23.90;15.10;;;;;;;22.33;74.12;99564.84;25073;1315;3026770;-61
2022/08/09 00:51:06;;;;;;;22.80;11.60;;;;;;;22.21;75.00;99563.14;25059;1315;3053490;-59
2022/08/09 00:53:35;;;;;;;23.60;13.10;;;;;;;22.56;73.71;99562.20;25077;1315;3026595;-60
2022/08/09 00:56:06;;;;;;;23.30;12.70;;;;;;;22.70;73.04;99564.14;25135;1314;3055035;-57
2022/08/09 00:58:35;;;;;;;30.60;13.40;;;;;;;22.55;73.42;99563.27;25116;1315;3026451;-60
2022/08/09 01:01:24;;;;;;;23.50;13.90;;;;;;;22.33;74.10;99561.87;25046;1313;3027011;-60
2022/08/09 01:04:06;;;;;;;20.50;12.40;;;;;;;22.10;75.35;99565.19;25077;1315;3052978;-60
2022/08/09 01:06:46;;;;;;;26.00;10.60;;;;;;;22.02;75.99;99564.13;25057;1318;3055286;-62
2022/08/09 01:10:00;;;;;;;23.60;11.70;;;;;;;22.44;74.02;99565.45;25078;1315;3059495;-58
2022/08/09 01:12:41;;;;;;;19.70;12.10;;;;;;;22.54;73.63;99567.84;25064;1315;3049988;-61
2022/08/09 01:15:13;;;;;;;34.20;14.60;;;;;;;22.28;74.67;99567.42;25074;1315;3054264;-59
2022/08/09 01:18:03;;;;;;;25.40;13.40;;;;;;;22.04;75.49;99568.48;25145;1313;3026482;-59
2022/08/09 01:21:21;;;;;;;20.30;11.10;;;;;;;21.88;76.52;99563.67;25114;1314;3071398;-57
2022/08/09 01:23:59;;;;;;;22.90;14.00;;;;;;;22.28;74.50;99565.27;24959;1315;3051769;-58
2022/08/09 01:26:52;;;;;;;25.50;12.90;;;;;;;22.28;74.40;99570.38;25073;1318;3055174;-60
2022/08/09 01:29:30;;;;;;;24.90;14.10;;;;;;;22.08;75.50;99569.32;25106;1315;3054858;-59
2022/08/09 01:32:01;;;;;;;30.70;14.40;;;;;;;21.83;76.46;99566.23;25079;1317;3056578;-60
2022/08/09 01:34:30;;;;;;;23.30;12.40;;;;;;;21.69;77.24;99566.84;25055;1314;3026477;-59
2022/08/09 01:37:00;;;;;;;26.80;14.30;;;;;;;22.07;76.20;99566.48;25102;1315;3026659;-59
2022/08/09 01:39:33;;;;;;;29.40;16.10;;;;;;;22.14;75.64;99566.23;25033;1315;3030061;-60
2022/08/09 01:42:03;;;;;;;30.20;17.10;;;;;;;21.97;76.30;99567.80;25045;1316;3026235;-58
2022/08/09 01:44:33;;;;;;;29.90;16.00;;;;;;;21.74;76.61;99567.78;25086;1315;3026851;-60
2022/08/09 01:47:03;;;;;;;29.70;14.60;;;;;;;21.63;77.57;99566.55;25034;1315;3028171;-60
2022/08/09 01:49:33;;;;;;;27.60;15.70;;;;;;;21.94;76.78;99565.08;25047;1318;3026597;-60
2022/08/09 01:52:08;;;;;;;34.30;19.70;;;;;;;22.04;75.91;99566.58;25120;1315;3029008;-59
2022/08/09 01:54:39;;;;;;;32.80;18.40;;;;;;;21.89;76.64;99567.82;25081;1315;3027488;-58
2022/08/09 01:57:15;;;;;;;35.10;17.60;;;;;;;21.68;76.86;99564.52;25139;1315;3026805;-60
2022/08/09 01:59:46;;;;;;;29.90;13.90;;;;;;;21.52;77.50;99566.50;25038;1315;3050311;-60
2022/08/09 02:02:15;;;;;;;27.00;15.90;;;;;;;21.82;76.62;99560.45;25073;1315;3026575;-59
2022/08/09 02:04:44;;;;;;;28.90;17.30;;;;;;;21.96;75.83;99560.62;25099;1315;3026377;-59
2022/08/09 02:07:15;;;;;;;34.70;17.20;;;;;;;21.82;75.77;99561.09;25025;1315;3051603;-59
2022/08/09 02:10:03;;;;;;;31.60;17.20;;;;;;;21.59;76.85;99566.63;25118;1318;3026438;-60
2022/08/09 02:12:34;;;;;;;31.10;13.70;;;;;;;21.48;77.81;99567.95;25066;1315;3049200;-60
2022/08/09 02:15:04;;;;;;;31.70;17.30;;;;;;;21.77;76.43;99562.69;25048;1317;3026351;-62
2022/08/09 02:17:34;;;;;;;30.70;15.90;;;;;;;21.82;76.21;99566.97;25057;1315;3069944;-61
2022/08/09 02:20:03;;;;;;;43.50;18.30;;;;;;;21.65;76.90;99571.05;25098;1315;3026619;-61
2022/08/09 02:22:57;;;;;;;32.40;17.40;;;;;;;21.46;77.58;99572.28;25073;1315;3054035;-61
2022/08/09 02:25:28;;;;;;;29.90;15.70;;;;;;;21.30;79.04;99575.38;25019;1315;3069735;-59
2022/08/09 02:28:11;;;;;;;38.10;17.50;;;;;;;21.54;78.33;99573.60;25087;1315;3026604;-60
2022/08/09 02:30:43;;;;;;;30.50;18.00;;;;;;;21.52;78.39;99575.42;25059;1316;3054939;-58
2022/08/09 02:33:14;;;;;;;30.00;17.40;;;;;;;21.35;79.03;99578.46;25031;1315;3026597;-58
2022/08/09 02:35:44;;;;;;;38.50;19.80;;;;;;;21.17;80.00;99581.72;25071;1315;3026762;-60
2022/08/09 02:38:14;;;;;;;27.90;13.30;;;;;;;20.97;81.50;99576.64;25091;1316;3026780;-58
2022/08/09 02:40:43;;;;;;;29.60;15.70;;;;;;;21.32;80.27;99578.50;25073;1315;3025936;-59
2022/08/09 02:43:12;;;;;;;32.70;16.60;;;;;;;21.35;79.80;99578.73;25091;1315;3030446;-59
2022/08/09 02:45:43;;;;;;;30.80;16.60;;;;;;;21.15;80.70;99583.33;24976;1315;3051281;-60
2022/08/09 02:48:13;;;;;;;41.70;17.10;;;;;;;20.97;81.19;99582.35;25086;1315;3027114;-59
2022/08/09 02:50:46;;;;;;;30.30;14.50;;;;;;;20.86;81.87;99587.76;25058;1315;3026374;-59
2022/08/09 02:53:26;;;;;;;34.50;16.60;;;;;;;21.22;80.45;99581.39;25049;1317;3069719;-59
2022/08/09 02:55:57;;;;;;;33.10;18.40;;;;;;;21.30;79.57;99583.05;25071;1315;3052536;-60
2022/08/09 02:58:29;;;;;;;44.10;20.90;;;;;;;21.24;79.88;99583.98;25079;1315;3026551;-59
2022/08/09 03:00:58;;;;;;;48.70;20.80;;;;;;;21.00;80.56;99590.18;25036;1315;3026505;-59
2022/08/09 03:03:28;;;;;;;40.80;18.80;;;;;;;20.91;81.27;99599.33;25081;1315;3027317;-59
2022/08/09 03:05:57;;;;;;;42.90;21.80;;;;;;;21.43;79.28;99603.56;25079;1315;3026309;-60
2022/08/09 03:08:26;;;;;;;39.60;19.20;;;;;;;21.52;78.39;99592.13;25010;1315;3026551;-60
2022/08/09 03:10:55;;;;;;;43.20;23.00;;;;;;;21.19;79.63;99592.92;25080;1315;3055674;-61
2022/08/09 03:13:24;;;;;;;46.80;21.40;;;;;;;21.03;80.24;99605.16;25082;1315;3026691;-59
2022/08/09 03:15:53;;;;;;;39.90;19.10;;;;;;;20.88;81.13;99600.55;25088;1313;3026691;-59
2022/08/09 03:18:22;;;;;;;39.50;19.10;;;;;;;21.10;80.65;99603.93;25016;1315;3059298;-60
2022/08/09 03:20:51;;;;;;;44.10;20.70;;;;;;;21.17;79.69;99603.20;25089;1313;3026367;-59
2022/08/09 03:23:20;;;;;;;38.50;19.40;;;;;;;21.11;79.46;99603.98;25060;1315;3053984;-59
2022/08/09 03:25:49;;;;;;;33.40;17.10;;;;;;;20.91;80.06;99603.01;25065;1315;3026688;-60
2022/08/09 03:28:18;;;;;;;40.20;16.00;;;;;;;20.71;81.25;99606.30;25057;1315;3051844;-61
2022/08/09 03:30:47;;;;;;;31.70;15.70;;;;;;;21.02;79.93;99602.77;25086;1315;3026550;-60
2022/08/09 03:33:16;;;;;;;33.50;17.60;;;;;;;21.07;79.11;99604.05;25006;1318;3050665;-61
2022/08/09 03:35:51;;;;;;;37.80;16.90;;;;;;;20.94;79.53;99605.42;25081;1315;3027210;-60
2022/08/09 03:38:20;;;;;;;37.70;17.70;;;;;;;20.83;79.97;99598.15;25017;1315;3066644;-59
2022/08/09 03:40:49;;;;;;;38.60;14.70;;;;;;;20.79;80.12;99598.77;25094;1313;3026166;-58
2022/08/09 03:43:18;;;;;;;34.50;15.70;;;;;;;21.24;78.38;99599.09;25036;1315;3052027;-58
2022/08/09 03:45:47;;;;;;;38.00;17.50;;;;;;;21.42;76.98;99595.64;25104;1314;3027127;-58
2022/08/09 03:48:16;;;;;;;30.80;18.20;;;;;;;21.31;77.59;99596.63;25043;1315;3054588;-59
2022/08/09 03:50:45;;;;;;;37.70;18.80;;;;;;;21.14;78.05;99598.54;25094;1315;3026682;-60
2022/08/09 03:53:14;;;;;;;33.10;16.60;;;;;;;21.06;78.13;99599.36;25012;1315;3052197;-60
2022/08/09 03:55:43;;;;;;;33.20;17.20;;;;;;;21.32;77.28;99598.52;25075;1316;3026227;-59
2022/08/09 03:58:12;;;;;;;38.70;16.80;;;;;;;21.48;76.19;99596.86;25028;1315;3058341;-60
2022/08/09 04:00:41;;;;;;;31.70;18.00;;;;;;;21.45;76.08;99600.06;25088;1313;3026731;-60
2022/08/09 04:03:10;;;;;;;32.30;18.20;;;;;;;21.31;76.67;99599.35;25100;1313;3026956;-60
2022/08/09 04:05:40;;;;;;;26.80;15.00;;;;;;;21.26;77.14;99603.78;25039;1315;3058259;-58
2022/08/09 04:08:09;;;;;;;30.10;17.20;;;;;;;21.57;75.98;99600.44;25060;1316;3029806;-60
2022/08/09 04:10:38;;;;;;;38.50;19.90;;;;;;;21.68;74.88;99596.70;25049;1314;3054830;-60
2022/08/09 04:13:10;;;;;;;32.20;19.60;;;;;;;21.66;74.92;99598.21;25071;1313;3026057;-59
2022/08/09 04:15:39;;;;;;;34.20;20.90;;;;;;;21.48;75.14;99601.33;25108;1314;3052672;-60
2022/08/09 04:18:09;;;;;;;33.90;19.50;;;;;;;21.34;75.79;99598.67;25042;1315;3026792;-59
2022/08/09 04:20:38;;;;;;;22.10;13.40;;;;;;;21.32;76.03;99598.34;25052;1315;3047463;-59
2022/08/09 04:23:07;;;;;;;26.80;15.90;;;;;;;21.78;73.78;99588.73;25116;1313;3026277;-60
2022/08/09 04:25:37;;;;;;;28.60;17.30;;;;;;;22.00;72.82;99594.80;25100;1313;3068523;-61
2022/08/09 04:28:06;;;;;;;30.10;18.30;;;;;;;22.04;72.60;99591.13;25027;1313;3028644;-59
2022/08/09 04:30:35;;;;;;;27.60;17.70;;;;;;;21.91;72.44;99596.27;25082;1313;3053780;-61
2022/08/09 04:33:04;;;;;;;39.00;20.80;;;;;;;21.74;73.20;99593.94;25082;1313;3028442;-60
2022/08/09 04:35:34;;;;;;;29.20;17.30;;;;;;;21.65;73.96;99596.54;25090;1314;3054553;-57
2022/08/09 04:38:03;;;;;;;30.20;16.10;;;;;;;22.10;73.14;99591.20;25078;1313;3026494;-61
2022/08/09 04:40:47;;;;;;;30.20;17.70;;;;;;;22.40;71.65;99593.43;25042;1315;3026796;-59
2022/08/09 04:43:17;;;;;;;33.10;17.50;;;;;;;22.42;71.55;99593.00;25044;1313;3055082;-60
2022/08/09 04:45:46;;;;;;;38.50;19.00;;;;;;;22.39;71.90;99590.73;25040;1313;3026318;-60
2022/08/09 04:48:15;;;;;;;25.50;16.50;;;;;;;22.26;72.12;99593.99;25064;1313;3026521;-58
2022/08/09 04:50:44;;;;;;;25.60;13.80;;;;;;;22.38;71.76;99593.46;25095;1313;3026727;-59
2022/08/09 04:53:13;;;;;;;24.70;15.40;;;;;;;22.89;70.12;99594.17;25126;1313;3052377;-59
2022/08/09 04:55:42;;;;;;;28.00;15.30;;;;;;;23.31;68.06;99589.25;25051;1315;3026521;-60
2022/08/09 04:58:11;;;;;;;35.00;15.10;;;;;;;23.36;67.31;99592.54;25119;1313;3055263;-61
2022/08/09 05:00:40;;;;;;;31.20;16.20;;;;;;;23.39;67.11;99605.46;25056;1313;3027060;-61
2022/08/09 05:03:09;;;;;;;25.60;15.70;;;;;;;23.35;66.98;99610.38;25125;1313;3052195;-61
2022/08/09 05:05:38;;;;;;;32.30;14.70;;;;;;;23.21;66.37;99598.88;25074;1313;3028223;-60
2022/08/09 05:08:07;;;;;;;20.50;14.10;;;;;;;22.82;65.81;99595.25;25076;1315;3057531;-59
2022/08/09 05:10:38;;;;;;;27.20;14.30;;;;;;;22.60;66.37;99593.77;25045;1315;3027984;-59
2022/08/09 05:13:07;;;;;;;32.60;14.90;;;;;;;22.54;67.16;99598.52;25115;1313;3026637;-60
2022/08/09 05:15:37;;;;;;;23.00;11.60;;;;;;;22.68;67.57;99601.63;25084;1315;3058180;-58
2022/08/09 05:18:06;;;;;;;30.30;16.60;;;;;;;23.34;65.84;99596.70;25045;1315;3026201;-61
2022/08/09 05:20:35;;;;;;;31.70;13.30;;;;;;;23.88;63.55;99592.00;25124;1313;3054243;-59
2022/08/09 05:23:04;;;;;;;21.20;12.80;;;;;;;24.05;61.07;99594.05;25047;1315;3028761;-60
2022/08/09 05:25:33;;;;;;;30.30;13.00;;;;;;;23.94;60.75;99598.35;25105;1315;3054861;-61
2022/08/09 05:28:03;;;;;;;29.30;13.30;;;;;;;23.69;60.96;99597.56;25047;1315;3026487;-60
2022/08/09 05:30:33;;;;;;;30.80;15.50;;;;;;;23.53;61.79;99601.02;25061;1315;3049210;-62
2022/08/09 05:33:02;;;;;;;25.40;14.90;;;;;;;23.38;62.51;99598.16;25039;1315;3026904;-60
2022/08/09 05:35:31;;;;;;;23.80;13.60;;;;;;;23.36;61.49;99595.26;25109;1313;3027747;-59
2022/08/09 05:38:00;;;;;;;29.00;13.40;;;;;;;23.29;60.93;99599.60;25045;1315;3049062;-61
2022/08/09 05:40:29;;;;;;;36.70;14.00;;;;;;;23.36;61.31;99597.52;25098;1314;3026723;-61
2022/08/09 05:42:58;;;;;;;26.60;13.30;;;;;;;23.42;61.11;99603.17;25053;1315;3070319;-61
2022/08/09 05:45:28;;;;;;;26.80;13.40;;;;;;;23.39;61.95;99602.89;25098;1315;3026747;-62
2022/08/09 05:47:57;;;;;;;31.20;12.90;;;;;;;23.31;61.26;99598.95;25108;1315;3051497;-60
2022/08/09 05:50:27;;;;;;;26.70;13.90;;;;;;;23.33;60.70;99597.01;25084;1315;3026920;-59
2022/08/09 05:52:56;;;;;;;34.40;13.80;;;;;;;23.34;61.29;99594.79;25060;1315;3026773;-60
2022/08/09 05:55:25;;;;;;;28.60;14.40;;;;;;;23.39;60.95;99598.66;25117;1315;3026525;-59
2022/08/09 05:57:54;;;;;;;26.60;12.80;;;;;;;23.46;60.94;99597.71;25053;1315;3070736;-61
2022/08/09 06:00:25;;;;;;;38.80;14.20;;;;;;;23.55;60.94;99592.70;25100;1315;3026698;-60
2022/08/09 06:02:57;;;;;;;31.50;13.90;;;;;;;23.58;61.14;99589.21;25080;1315;3050975;-61
2022/08/09 06:05:27;;;;;;;25.30;13.00;;;;;;;23.75;60.75;99596.52;25059;1317;3026558;-59
2022/08/09 06:07:56;;;;;;;34.80;14.00;;;;;;;23.89;60.03;99597.08;25096;1313;3026749;-61
2022/08/09 06:10:36;;;;;;;32.40;12.70;;;;;;;23.96;60.13;99596.30;25072;1315;3026592;-60
2022/08/09 06:13:09;;;;;;;23.00;13.20;;;;;;;23.97;59.61;99596.73;25076;1315;3069333;-60
2022/08/09 06:15:39;;;;;;;26.90;13.20;;;;;;;24.08;59.86;99595.66;25084;1315;3051559;-61
2022/08/09 06:18:08;;;;;;;29.60;13.40;;;;;;;24.18;58.84;99595.19;25068;1315;3026563;-59
2022/08/09 06:20:38;;;;;;;28.50;13.60;;;;;;;24.21;58.05;99589.95;25084;1315;3069218;-62
2022/08/09 06:23:06;;;;;;;26.60;13.30;;;;;;;24.23;57.29;99592.34;25082;1313;3026199;-60
2022/08/09 06:25:36;;;;;;;22.90;13.80;;;;;;;24.28;57.42;99591.42;25048;1315;3053201;-59
2022/08/09 06:28:06;;;;;;;30.20;13.50;;;;;;;24.26;57.24;99594.80;25108;1315;3026628;-60
2022/08/09 06:30:35;;;;;;;25.30;12.90;;;;;;;24.39;57.61;99592.04;25104;1315;3054248;-58
2022/08/09 06:33:04;;;;;;;23.70;12.50;;;;;;;24.52;57.26;99590.77;25099;1315;3026422;-60
2022/08/09 06:35:34;;;;;;;39.00;14.50;;;;;;;24.51;56.73;99594.64;25072;1315;3051656;-60
2022/08/09 06:38:03;;;;;;;33.90;13.30;;;;;;;24.59;57.23;99592.39;25140;1315;3026345;-60
2022/08/09 06:40:32;;;;;;;30.30;13.60;;;;;;;24.69;56.60;99594.39;25065;1314;3057927;-59
2022/08/09 06:43:01;;;;;;;34.70;13.80;;;;;;;24.71;57.15;99598.42;25079;1315;3028283;-61
2022/08/09 06:45:30;;;;;;;35.20;13.90;;;;;;;24.84;57.11;99599.14;25153;1315;3054846;-61
2022/08/09 06:47:59;;;;;;;31.70;14.80;;;;;;;25.04;56.70;99599.89;25092;1315;3026535;-59
2022/08/09 06:50:28;;;;;;;33.10;15.80;;;;;;;25.18;55.43;99601.95;25095;1315;3053515;-60
2022/08/09 06:52:59;;;;;;;30.80;14.00;;;;;;;25.26;54.54;99596.69;25096;1313;3028373;-61
2022/08/09 06:55:30;;;;;;;25.90;12.40;;;;;;;25.30;54.58;99591.58;25090;1315;3048680;-60
2022/08/09 06:58:00;;;;;;;27.50;12.70;;;;;;;25.36;55.00;99590.92;25085;1315;3027325;-61
2022/08/09 07:00:29;;;;;;;20.40;12.40;;;;;;;25.44;55.12;99592.91;25128;1315;3027070;-61
2022/08/09 07:02:58;;;;;;;22.10;12.60;;;;;;;25.60;55.14;99589.95;25035;1315;3051025;-61
2022/08/09 07:05:27;;;;;;;25.50;12.80;;;;;;;25.73;53.85;99587.77;25086;1314;3026740;-61
2022/08/09 07:07:56;;;;;;;28.00;12.80;;;;;;;25.80;52.21;99589.33;25054;1315;3069891;-60
2022/08/09 07:10:25;;;;;;;20.10;10.60;;;;;;;25.89;51.90;99585.16;25128;1315;3026992;-62
2022/08/09 07:12:54;;;;;;;28.10;12.60;;;;;;;26.00;50.37;99585.62;25069;1315;3050761;-61
2022/08/09 07:15:23;;;;;;;36.90;12.50;;;;;;;26.09;51.51;99587.05;25080;1315;3026605;-62
2022/08/09 07:17:52;;;;;;;31.00;12.20;;;;;;;26.12;51.68;99583.77;25097;1315;3055756;-60
2022/08/09 07:20:22;;;;;;;26.00;12.80;;;;;;;26.19;52.00;99585.95;25088;1315;3026519;-60
2022/08/09 07:22:51;;;;;;;26.40;13.10;;;;;;;26.25;51.91;99585.69;25076;1315;3051862;-61
2022/08/09 07:25:21;;;;;;;25.50;13.30;;;;;;;26.32;52.17;99585.46;25106;1315;3026563;-63
2022/08/09 07:27:50;;;;;;;27.60;13.60;;;;;;;26.42;51.42;99586.66;25089;1315;3029174;-60
2022/08/09 07:30:19;;;;;;;34.50;12.80;;;;;;;26.58;51.37;99587.16;25096;1315;3051326;-60
2022/08/09 07:32:48;;;;;;;23.30;12.10;;;;;;;26.69;49.99;99589.05;25070;1315;3026488;-61
2022/08/09 07:35:17;;;;;;;27.90;11.60;;;;;;;26.76;48.68;99586.23;25133;1315;3055704;-60
2022/08/09 07:37:46;;;;;;;34.40;13.10;;;;;;;26.84;48.66;99592.05;25050;1315;3026435;-62
2022/08/09 07:40:16;;;;;;;30.20;13.70;;;;;;;26.92;50.08;99590.36;25081;1315;3054785;-62
2022/08/09 07:42:50;;;;;;;33.60;13.00;;;;;;;27.05;49.62;99592.20;25127;1315;3026613;-60
2022/08/09 07:45:26;;;;;;;20.60;12.40;;;;;;;27.25;49.38;99593.02;25089;1315;3050349;-60
2022/08/09 07:47:56;;;;;;;23.30;12.80;;;;;;;27.46;49.42;99598.34;25141;1315;3055446;-60
2022/08/09 07:50:26;;;;;;;30.10;13.80;;;;;;;27.62;49.03;99598.00;25106;1315;3026746;-61
2022/08/09 07:52:55;;;;;;;26.20;13.00;;;;;;;27.76;48.42;99599.05;25110;1315;3026712;-60
2022/08/09 07:55:24;;;;;;;28.40;12.40;;;;;;;27.86;47.08;99596.70;25084;1315;3026409;-62
2022/08/09 07:57:53;;;;;;;27.30;13.30;;;;;;;27.96;46.98;99589.91;25132;1314;3053123;-60
2022/08/09 08:00:22;;;;;;;28.00;11.90;;;;;;;28.07;47.32;99588.95;25052;1315;3026526;-61
2022/08/09 08:02:51;;;;;;;19.40;12.50;;;;;;;28.08;45.88;99591.23;25106;1315;3054722;-61
2022/08/09 08:05:20;;;;;;;27.20;13.80;;;;;;;28.03;45.60;99592.59;25074;1315;3027368;-60
2022/08/09 08:07:49;;;;;;;23.90;12.60;;;;;;;28.04;45.06;99587.52;25100;1315;3051368;-60
2022/08/09 08:10:18;;;;;;;28.60;12.70;;;;;;;28.11;44.21;99586.88;25072;1315;3026996;-61
2022/08/09 08:12:47;;;;;;;24.50;12.70;;;;;;;28.27;44.12;99593.09;25128;1315;3057678;-61
2022/08/09 08:15:17;;;;;;;29.20;13.10;;;;;;;28.36;44.10;99592.72;25052;1315;3027348;-63
2022/08/09 08:17:47;;;;;;;27.90;12.50;;;;;;;28.51;43.94;99588.04;25051;1315;3051890;-62
2022/08/09 08:20:20;;;;;;;31.80;12.40;;;;;;;28.70;43.65;99590.60;25048;1315;3026535;-63
2022/08/09 08:22:49;;;;;;;31.50;13.00;;;;;;;28.86;43.75;99590.70;25086;1315;3026907;-63
2022/08/09 08:25:18;;;;;;;19.00;11.70;;;;;;;29.02;42.54;99592.38;25054;1315;3026813;-62
2022/08/09 08:27:47;;;;;;;24.90;11.90;;;;;;;29.12;41.07;99593.11;25114;1315;3058167;-60
2022/08/09 08:30:18;;;;;;;24.30;11.90;;;;;;;29.23;39.98;99589.31;25043;1315;3026921;-63
2022/08/09 08:32:48;;;;;;;25.00;11.50;;;;;;;29.42;39.17;99589.98;25065;1315;3054675;-62
2022/08/09 08:35:17;;;;;;;20.70;11.20;;;;;;;29.57;39.16;99581.17;25135;1315;3026476;-62
2022/08/09 08:37:46;;;;;;;30.00;11.70;;;;;;;29.70;39.63;99582.41;25043;1315;3050885;-63
2022/08/09 08:40:15;;;;;;;24.30;11.60;;;;;;;29.80;39.09;99579.77;25093;1315;3026878;-62
2022/08/09 08:42:44;;;;;;;24.30;11.40;;;;;;;29.88;38.50;99579.21;25067;1315;3051314;-63
2022/08/09 08:45:13;;;;;;;21.80;11.90;;;;;;;29.81;38.26;99576.77;25100;1315;3026633;-61
2022/08/09 08:47:45;;;;;;;19.20;10.70;;;;;;;29.89;38.17;99571.71;25049;1315;3069205;-63
2022/08/09 08:50:14;;;;;;;19.60;10.80;;;;;;;30.03;37.40;99568.17;25105;1315;3028658;-61
2022/08/09 08:52:43;;;;;;;14.20;8.30;;;;;;;30.19;35.50;99566.65;25125;1315;3026925;-63
2022/08/09 08:55:14;;;;;;;18.80;8.30;;;;;;;30.24;32.84;99565.98;25066;1315;3026483;-62
2022/08/09 08:57:44;;;;;;;15.70;8.30;;;;;;;30.39;32.20;99566.78;25081;1315;3048944;-61
2022/08/09 09:00:14;;;;;;;17.00;7.90;;;;;;;30.51;31.98;99564.97;25055;1315;3026620;-62
2022/08/09 09:02:43;;;;;;;13.40;8.10;;;;;;;30.59;32.22;99566.06;25162;1315;3026934;-63
2022/08/09 09:05:12;;;;;;;18.50;8.70;;;;;;;30.56;31.44;99564.97;25230;1315;3026393;-62
2022/08/09 09:07:43;;;;;;;19.50;9.30;;;;;;;30.52;32.05;99565.38;24972;1317;3026290;-62
2022/08/09 09:10:12;;;;;;;21.20;9.00;;;;;;;30.64;32.11;99563.81;25065;1315;3027269;-62
2022/08/09 09:12:44;;;;;;;19.70;9.40;;;;;;;30.79;31.80;99559.59;25044;1315;3026994;-61
2022/08/09 09:15:13;;;;;;;20.60;9.00;;;;;;;30.87;31.71;99559.20;25077;1315;3026523;-61
2022/08/09 09:17:42;;;;;;;15.50;9.10;;;;;;;31.03;31.72;99558.77;25110;1315;3028611;-64
2022/08/09 09:20:12;;;;;;;17.10;8.50;;;;;;;31.16;31.75;99557.76;25084;1315;3053713;-63
2022/08/09 09:22:55;;;;;;;20.20;9.00;;;;;;;31.34;31.60;99560.05;25117;1316;3026896;-59
2022/08/09 09:25:42;;;;;;;15.40;7.80;;;;;;;31.41;29.86;99554.70;25050;1316;3051548;-62
2022/08/09 09:28:12;;;;;;;13.90;8.20;;;;;;;31.47;29.50;99556.71;25148;1316;3052606;-59
2022/08/09 09:30:55;;;;;;;20.20;7.80;;;;;;;31.36;29.73;99556.66;25031;1315;3026516;-64
2022/08/09 09:33:33;;;;;;;16.20;8.60;;;;;;;31.38;30.29;99551.98;25090;1315;3058849;-65
2022/08/09 09:36:04;;;;;;;18.20;8.70;;;;;;;31.55;30.17;99547.52;25081;1316;3050335;-63
2022/08/09 09:38:43;;;;;;;21.10;8.60;;;;;;;31.70;29.61;99545.76;25025;1316;3026819;-65
2022/08/09 09:41:21;;;;;;;17.20;8.50;;;;;;;31.81;29.47;99545.49;25259;1316;3054041;-62
2022/08/09 09:43:50;;;;;;;19.00;9.20;;;;;;;32.02;30.11;99542.71;25932;1314;3069035;-63
2022/08/09 09:46:26;;;;;;;17.70;9.20;;;;;;;32.19;29.71;99536.86;25952;1314;3025937;-65
2022/08/09 09:49:05;;;;;;;14.40;9.00;;;;;;;32.32;29.85;99540.23;25149;1316;3043270;-62
2022/08/09 09:51:36;;;;;;;14.50;8.20;;;;;;;32.55;29.91;99537.07;25090;1316;3055442;-65
2022/08/09 09:54:08;;;;;;;13.90;8.30;;;;;;;32.72;29.65;99545.11;25122;1316;3026107;-63
2022/08/09 09:56:42;;;;;;;12.40;7.50;;;;;;;32.77;28.40;99547.40;25122;1316;3026926;-64
2022/08/09 09:59:13;;;;;;;17.00;8.60;;;;;;;32.72;27.87;99545.73;25127;1316;3055345;-63
2022/08/09 10:01:42;;;;;;;13.70;7.90;;;;;;;32.80;28.15;99541.41;25087;1315;3027153;-62
2022/08/09 10:04:15;;;;;;;19.50;8.40;;;;;;;33.04;28.91;99543.85;25082;1314;3026434;-60
2022/08/09 10:06:45;;;;;;;21.10;9.00;;;;;;;33.24;28.92;99540.79;25108;1316;3055318;-63
2022/08/09 10:09:15;;;;;;;26.30;11.60;;;;;;;33.36;28.39;99540.77;25082;1316;3027393;-65
2022/08/09 10:11:44;;;;;;;23.80;11.20;;;;;;;33.49;27.76;99539.02;25006;1316;3027000;-64
2022/08/09 10:14:24;;;;;;;18.40;9.70;;;;;;;33.43;26.83;99542.17;25087;1316;3026827;-64
2022/08/09 10:16:53;;;;;;;22.40;9.60;;;;;;;33.43;26.77;99540.92;25122;1315;3051843;-63
2022/08/09 10:19:34;;;;;;;18.10;10.10;;;;;;;33.53;26.83;99536.16;25068;1316;3026783;-63
2022/08/09 10:22:02;;;;;;;16.40;10.00;;;;;;;33.43;25.33;99539.11;25076;1316;3053047;-64
2022/08/09 10:24:31;;;;;;;16.60;10.30;;;;;;;33.49;25.64;99536.14;25090;1316;3026658;-64
2022/08/09 10:27:00;;;;;;;26.30;11.10;;;;;;;33.70;26.03;99532.13;25039;1316;3068440;-62
2022/08/09 10:29:27;;;;;;;26.30;11.10;;;;;;;33.75;25.26;99534.61;24182;1316;4977260;-64
2022/08/09 10:31:56;;;;;;;23.10;12.20;;;;;;;33.64;25.49;99530.74;25028;1316;3027229;-62
2022/08/09 10:34:25;;;;;;;15.80;9.90;;;;;;;33.92;25.26;99526.11;25132;1315;3026558;-63
2022/08/09 10:36:55;;;;;;;15.50;9.10;;;;;;;33.94;25.33;99529.85;25041;1316;3055177;-62
2022/08/09 10:39:25;;;;;;;22.80;9.50;;;;;;;34.04;25.54;99527.72;25126;1316;3026852;-60
2022/08/09 10:41:54;;;;;;;28.30;9.60;;;;;;;34.09;24.55;99531.36;25061;1316;3026556;-64
2022/08/09 10:44:24;;;;;;;25.40;10.00;;;;;;;34.08;24.13;99528.83;25138;1315;3052708;-62
2022/08/09 10:47:35;;;;;;;17.60;9.20;;;;;;;34.13;23.75;99523.10;25100;1316;3026918;-65
2022/08/09 10:50:21;;;;;;;20.20;9.40;;;;;;;34.33;23.88;99519.35;24950;1316;3071390;-61
2022/08/09 10:53:07;;;;;;;25.60;9.10;;;;;;;34.20;23.85;99516.06;25053;1316;3050627;-64
2022/08/09 10:55:36;;;;;;;20.60;8.10;;;;;;;34.15;23.64;99512.44;25041;1316;3055338;-65
2022/08/09 10:58:05;;;;;;;15.30;8.60;;;;;;;34.34;23.55;99513.41;25098;1316;3026777;-64
2022/08/09 11:00:41;;;;;;;16.50;7.80;;;;;;;34.48;23.29;99513.09;25071;1316;3052181;-63
2022/08/09 11:03:22;;;;;;;17.20;8.50;;;;;;;34.61;23.20;99511.63;25035;1316;3053994;-63
2022/08/09 11:06:17;;;;;;;15.70;8.50;;;;;;;34.77;22.95;99508.85;25116;1316;3052327;-62
2022/08/09 11:08:47;;;;;;;20.00;9.40;;;;;;;34.89;22.57;99502.29;25038;1316;3058473;-63
2022/08/09 11:11:16;;;;;;;17.20;8.70;;;;;;;34.98;22.58;99506.06;25012;1315;3026439;-63
2022/08/09 11:13:45;;;;;;;17.90;8.60;;;;;;;35.11;22.16;99503.32;25175;1316;3026472;-63
2022/08/09 11:16:31;;;;;;;26.80;8.80;;;;;;;35.14;22.07;99500.23;25106;1316;3026097;-61
2022/08/09 11:19:02;;;;;;;25.60;9.00;;;;;;;35.20;22.21;99496.48;25108;1316;3049605;-63
2022/08/09 11:21:50;;;;;;;16.10;8.40;;;;;;;35.35;22.23;99499.91;25109;1315;3026514;-63